createdAt,value
2022-09-26T00:01:08.083Z,47.15
2022-09-26T00:03:35.463Z,46.99
2022-09-26T00:06:03.480Z,47.07
2022-09-26T00:08:50.911Z,46.82
2022-09-26T00:11:20.027Z,47.24
2022-09-26T00:13:47.295Z,46.61
2022-09-26T00:16:15.597Z,46.56
2022-09-26T00:18:42.752Z,46.85
2022-09-26T00:21:12.086Z,46.78
2022-09-26T00:23:39.471Z,46.93
2022-09-26T00:26:07.521Z,46.95
2022-09-26T00:28:34.570Z,47.28
2022-09-26T00:31:08.429Z,47.39
2022-09-26T00:33:35.807Z,47.26
2022-09-26T00:36:03.153Z,47.31
2022-09-26T00:38:30.437Z,46.93
2022-09-26T00:41:01.168Z,47.43
2022-09-26T00:43:32.670Z,47.20
2022-09-26T00:46:14.620Z,47.54
2022-09-26T00:48:42.467Z,47.21
2022-09-26T00:51:09.978Z,47.24
2022-09-26T00:53:39.613Z,47.74
2022-09-26T00:56:10.298Z,47.80
2022-09-26T00:58:43.339Z,47.74
2022-09-26T01:01:10.567Z,47.81
2022-09-26T01:03:40.133Z,47.74
2022-09-26T01:06:07.052Z,48.09
2022-09-26T01:08:42.939Z,48.12
2022-09-26T01:11:14.780Z,47.74
2022-09-26T01:13:44.343Z,47.78
2022-09-26T01:16:11.047Z,47.83
2022-09-26T01:18:38.293Z,48.05
2022-09-26T01:21:14.292Z,48.27
2022-09-26T01:23:50.912Z,47.68
2022-09-26T01:26:29.924Z,47.77
2022-09-26T01:29:15.577Z,47.76
2022-09-26T01:32:20.182Z,47.97
2022-09-26T01:34:51.161Z,47.85
2022-09-26T01:37:26.339Z,47.91
2022-09-26T01:39:59.270Z,47.99
2022-09-26T01:42:31.940Z,47.82
2022-09-26T01:45:05.191Z,47.73
2022-09-26T01:47:38.142Z,48.25
2022-09-26T01:50:20.369Z,47.98
2022-09-26T01:53:00.166Z,47.94
2022-09-26T01:55:37.576Z,48.30
2022-09-26T01:58:14.467Z,48.21
2022-09-26T02:00:50.633Z,48.02
2022-09-26T02:03:23.074Z,48.02
2022-09-26T02:05:49.979Z,48.28
2022-09-26T02:08:19.612Z,48.09
2022-09-26T02:11:02.636Z,48.31
2022-09-26T02:13:32.244Z,48.27
2022-09-26T02:16:02.532Z,48.25
2022-09-26T02:18:32.232Z,48.34
2022-09-26T02:21:02.362Z,48.27
2022-09-26T02:23:29.116Z,48.22
2022-09-26T02:25:56.093Z,48.67
2022-09-26T02:28:23.663Z,48.70
2022-09-26T02:30:54.030Z,48.45
2022-09-26T02:33:21.515Z,48.84
2022-09-26T02:35:57.820Z,48.68
2022-09-26T02:38:26.683Z,48.69
2022-09-26T02:41:04.186Z,48.91
2022-09-26T02:43:31.066Z,49.04
2022-09-26T02:46:06.000Z,48.65
2022-09-26T02:48:38.676Z,48.94
2022-09-26T02:51:10.698Z,49.22
2022-09-26T02:53:56.577Z,49.25
2022-09-26T02:56:42.265Z,49.19
2022-09-26T02:59:22.999Z,49.13
2022-09-26T03:01:49.872Z,49.32
2022-09-26T03:04:52.563Z,49.20
2022-09-26T03:07:29.657Z,49.77
2022-09-26T03:09:57.803Z,49.71
2022-09-26T03:12:26.200Z,49.66
2022-09-26T03:14:58.452Z,49.78
2022-09-26T03:17:29.330Z,49.53
2022-09-26T03:20:07.769Z,49.81
2022-09-26T03:22:34.645Z,49.80
2022-09-26T03:25:02.352Z,50.11
2022-09-26T03:27:29.568Z,50.12
2022-09-26T03:29:56.545Z,50.22
2022-09-26T03:32:23.524Z,50.15
2022-09-26T03:34:51.498Z,50.20
2022-09-26T03:37:18.493Z,50.61
2022-09-26T03:39:45.506Z,50.76
2022-09-26T03:42:14.549Z,50.99
2022-09-26T03:44:44.352Z,50.80
2022-09-26T03:47:11.340Z,51.30
2022-09-26T03:49:39.146Z,51.05
2022-09-26T03:52:07.925Z,51.67
2022-09-26T03:54:35.108Z,51.42
2022-09-26T03:57:01.999Z,51.47
2022-09-26T03:59:28.637Z,51.78
2022-09-26T04:01:55.825Z,51.87
2022-09-26T04:04:22.752Z,52.38
2022-09-26T04:06:51.580Z,51.97
2022-09-26T04:09:19.229Z,52.49
2022-09-26T04:11:46.935Z,52.61
2022-09-26T04:14:13.898Z,52.43
2022-09-26T04:16:40.939Z,52.70
2022-09-26T04:19:07.861Z,53.02
2022-09-26T04:21:42.041Z,52.86
2022-09-26T04:24:13.945Z,53.25
2022-09-26T04:26:42.016Z,52.96
2022-09-26T04:29:09.678Z,53.23
2022-09-26T04:31:37.238Z,53.25
2022-09-26T04:34:05.378Z,53.01
2022-09-26T04:36:32.938Z,53.55
2022-09-26T04:39:00.884Z,53.52
2022-09-26T04:41:28.772Z,53.53
2022-09-26T04:43:56.153Z,53.65
2022-09-26T04:46:29.635Z,53.96
2022-09-26T04:48:57.855Z,53.90
2022-09-26T04:51:25.397Z,53.92
2022-09-26T04:53:52.541Z,54.26
2022-09-26T04:56:20.996Z,54.50
2022-09-26T04:58:48.350Z,54.05
2022-09-26T05:01:16.569Z,54.52
2022-09-26T05:03:43.554Z,54.43
2022-09-26T05:06:11.504Z,54.70
2022-09-26T05:08:39.632Z,54.73
2022-09-26T05:11:06.886Z,54.55
2022-09-26T05:13:34.027Z,54.78
2022-09-26T05:16:02.095Z,54.85
2022-09-26T05:18:29.113Z,54.74
2022-09-26T05:20:56.772Z,54.58
2022-09-26T05:23:46.166Z,54.87
2022-09-26T05:26:21.658Z,55.01
2022-09-26T05:28:50.354Z,55.79
2022-09-26T05:31:18.226Z,56.08
2022-09-26T05:33:46.753Z,55.68
2022-09-26T05:36:13.844Z,55.59
2022-09-26T05:38:40.860Z,56.12
2022-09-26T05:41:07.851Z,56.36
2022-09-26T05:43:35.422Z,56.17
2022-09-26T05:46:06.791Z,56.78
2022-09-26T05:48:34.400Z,56.71
2022-09-26T05:51:09.597Z,56.69
2022-09-26T05:53:36.257Z,56.39
2022-09-26T05:56:03.467Z,56.69
2022-09-26T05:58:34.671Z,56.48
2022-09-26T06:01:09.138Z,56.27
2022-09-26T06:03:36.687Z,56.32
2022-09-26T06:06:04.842Z,56.32
2022-09-26T06:08:32.192Z,56.15
2022-09-26T06:11:03.657Z,56.22
2022-09-26T06:13:31.211Z,55.89
2022-09-26T06:16:02.166Z,55.93
2022-09-26T06:18:29.176Z,55.81
2022-09-26T06:20:56.156Z,56.13
2022-09-26T06:23:23.086Z,55.59
2022-09-26T06:25:50.438Z,55.79
2022-09-26T06:28:18.530Z,55.50
2022-09-26T06:30:45.645Z,55.46
2022-09-26T06:33:12.865Z,55.91
2022-09-26T06:35:39.796Z,55.75
2022-09-26T06:38:07.024Z,55.53
2022-09-26T06:40:34.297Z,55.58
2022-09-26T06:43:01.295Z,55.53
2022-09-26T06:45:28.650Z,55.29
2022-09-26T06:47:55.762Z,55.05
2022-09-26T06:50:23.152Z,55.66
2022-09-26T06:52:50.089Z,55.49
2022-09-26T06:55:16.796Z,55.47
2022-09-26T06:57:44.366Z,55.45
2022-09-26T07:00:13.173Z,55.62
2022-09-26T07:02:49.067Z,55.32
2022-09-26T07:05:16.558Z,55.68
2022-09-26T07:07:45.927Z,55.31
2022-09-26T07:10:13.860Z,55.68
2022-09-26T07:12:45.370Z,55.48
2022-09-26T07:15:14.446Z,55.26
2022-09-26T07:17:41.853Z,55.89
2022-09-26T07:20:10.020Z,55.40
2022-09-26T07:22:37.190Z,55.36
2022-09-26T07:25:09.868Z,56.02
2022-09-26T07:27:36.865Z,55.60
2022-09-26T07:30:04.921Z,55.64
2022-09-26T07:32:31.927Z,56.21
2022-09-26T07:35:08.504Z,55.93
2022-09-26T07:37:35.411Z,56.22
2022-09-26T07:40:02.409Z,56.38
2022-09-26T07:42:29.411Z,56.27
2022-09-26T07:48:04.532Z,55.59
2022-09-26T07:50:31.633Z,55.97
2022-09-26T07:52:58.784Z,55.73
2022-09-26T07:55:27.207Z,56.21
2022-09-26T07:57:53.867Z,56.25
2022-09-26T08:00:21.639Z,56.02
2022-09-26T08:02:48.914Z,55.96
2022-09-26T08:05:22.255Z,56.03
2022-09-26T08:07:49.497Z,55.77
2022-09-26T08:10:21.386Z,55.79
2022-09-26T08:12:48.796Z,55.94
2022-09-26T08:15:15.821Z,56.33
2022-09-26T08:17:43.559Z,55.42
2022-09-26T08:20:11.121Z,52.92
2022-09-26T08:22:37.773Z,52.62
2022-09-26T08:25:06.703Z,51.66
2022-09-26T08:27:34.071Z,51.90
2022-09-26T08:30:01.252Z,51.61
2022-09-26T08:32:27.924Z,51.82
2022-09-26T08:35:05.729Z,52.19
2022-09-26T08:37:32.446Z,51.96
2022-09-26T08:40:01.085Z,51.63
2022-09-26T08:42:28.900Z,51.65
2022-09-26T08:45:33.219Z,52.12
2022-09-26T08:48:07.057Z,52.66
2022-09-26T08:50:52.591Z,52.36
2022-09-26T08:53:22.970Z,52.67
2022-09-26T08:55:50.379Z,52.49
2022-09-26T08:58:26.581Z,52.57
2022-09-26T09:01:11.448Z,52.35
2022-09-26T09:03:40.994Z,52.81
2022-09-26T09:06:13.822Z,53.72
2022-09-26T09:08:44.868Z,53.48
2022-09-26T09:11:40.384Z,53.61
2022-09-26T09:14:31.780Z,54.00
2022-09-26T09:17:12.911Z,54.08
2022-09-26T09:20:12.464Z,54.28
2022-09-26T09:22:57.274Z,54.37
2022-09-26T09:25:51.516Z,54.86
2022-09-26T09:28:41.040Z,54.78
2022-09-26T09:31:16.226Z,54.94
2022-09-26T09:33:49.216Z,54.50
2022-09-26T09:36:22.305Z,54.36
2022-09-26T09:38:51.110Z,54.18
2022-09-26T09:41:23.786Z,54.40
2022-09-26T09:44:01.186Z,53.86
2022-09-26T09:46:29.529Z,53.81
2022-09-26T09:49:03.369Z,53.85
2022-09-26T09:51:38.358Z,53.78
2022-09-26T09:54:15.901Z,53.41
2022-09-26T09:56:42.936Z,53.66
2022-09-26T09:59:10.167Z,53.24
2022-09-26T10:01:41.709Z,53.23
2022-09-26T10:04:09.076Z,53.14
2022-09-26T10:06:46.580Z,52.74
2022-09-26T10:09:39.079Z,52.27
2022-09-26T10:12:10.978Z,52.93
2022-09-26T10:14:43.013Z,52.50
2022-09-26T10:17:11.218Z,52.58
2022-09-26T10:19:39.854Z,52.59
2022-09-26T10:22:11.700Z,52.09
2022-09-26T10:24:41.435Z,52.19
2022-09-26T10:27:19.352Z,52.24
2022-09-26T10:29:47.608Z,52.27
2022-09-26T10:32:18.190Z,52.06
2022-09-26T10:37:37.282Z,51.74
2022-09-26T10:40:37.988Z,51.62
2022-09-26T10:43:14.756Z,51.73
2022-09-26T10:45:41.606Z,51.46
2022-09-26T10:48:08.648Z,51.77
2022-09-26T10:50:35.609Z,51.50
2022-09-26T10:53:08.734Z,51.70
2022-09-26T10:55:41.074Z,51.27
2022-09-26T10:58:13.686Z,51.30
2022-09-26T11:00:43.010Z,51.24
2022-09-26T11:03:11.809Z,51.39
2022-09-26T11:05:49.736Z,51.51
2022-09-26T11:08:16.911Z,51.43
2022-09-26T11:10:46.132Z,51.48
2022-09-26T11:13:18.108Z,51.60
2022-09-26T11:15:54.918Z,51.55
2022-09-26T11:18:27.727Z,51.40
2022-09-26T11:20:57.719Z,51.58
2022-09-26T11:23:35.468Z,51.23
2022-09-26T11:26:12.860Z,51.33
2022-09-26T11:28:44.216Z,51.67
2022-09-26T11:31:19.251Z,51.53
2022-09-26T11:33:46.459Z,51.27
2022-09-26T11:36:22.911Z,51.46
2022-09-26T11:38:55.856Z,51.04
2022-09-26T11:41:42.486Z,51.22
2022-09-26T11:44:22.248Z,51.04
2022-09-26T11:46:58.589Z,51.25
2022-09-26T11:49:34.778Z,51.21
2022-09-26T11:52:02.397Z,51.44
2022-09-26T11:54:33.739Z,51.53
2022-09-26T11:57:03.954Z,51.31
2022-09-26T11:59:40.960Z,51.32
2022-09-26T12:02:16.033Z,51.36
2022-09-26T12:04:56.292Z,51.51
2022-09-26T12:07:35.414Z,51.59
2022-09-26T12:10:11.976Z,51.33
2022-09-26T12:12:48.750Z,51.45
2022-09-26T12:15:23.927Z,51.69
2022-09-26T12:17:51.059Z,51.50
2022-09-26T12:20:20.584Z,51.45
2022-09-26T12:22:51.170Z,51.44
2022-09-26T12:25:26.736Z,51.64
2022-09-26T12:27:53.826Z,51.29
2022-09-26T12:30:24.739Z,51.61
2022-09-26T12:35:29.457Z,51.50
2022-09-26T12:38:07.460Z,51.52
2022-09-26T12:40:40.320Z,51.35
2022-09-26T12:43:16.716Z,51.66
2022-09-26T12:45:57.658Z,51.57
2022-09-26T12:48:34.649Z,51.43
2022-09-26T12:51:10.768Z,51.42
2022-09-26T12:53:44.940Z,51.74
2022-09-26T12:56:13.220Z,51.72
2022-09-26T12:58:40.389Z,51.65
2022-09-26T13:01:16.877Z,51.79
2022-09-26T13:03:47.268Z,51.46
2022-09-26T13:06:17.737Z,51.87
2022-09-26T13:08:46.064Z,51.36
2022-09-26T13:11:23.571Z,51.85
2022-09-26T13:14:06.556Z,51.58
2022-09-26T13:16:42.612Z,51.79
2022-09-26T13:19:16.357Z,51.84
2022-09-26T13:21:48.567Z,51.65
2022-09-26T13:24:21.622Z,51.65
2022-09-26T13:26:54.467Z,51.87
2022-09-26T13:29:26.933Z,51.74
2022-09-26T13:32:04.293Z,51.74
2022-09-26T13:34:36.109Z,52.01
2022-09-26T13:37:04.760Z,51.68
2022-09-26T13:39:32.751Z,51.70
2022-09-26T13:42:01.748Z,51.87
2022-09-26T13:44:28.931Z,51.80
2022-09-26T13:47:08.643Z,51.99
2022-09-26T13:49:44.809Z,51.89
2022-09-26T13:52:20.817Z,51.92
2022-09-26T13:54:59.310Z,52.04
2022-09-26T13:57:32.149Z,52.18
2022-09-26T13:59:59.096Z,52.05
2022-09-26T14:02:29.601Z,52.55
2022-09-26T14:05:02.986Z,52.17
2022-09-26T14:08:11.352Z,52.63
2022-09-26T14:10:42.135Z,52.80
2022-09-26T14:13:33.600Z,52.28
2022-09-26T14:16:02.038Z,52.76
2022-09-26T14:18:44.389Z,52.41
2022-09-26T14:21:12.965Z,52.67
2022-09-26T14:23:46.939Z,52.79
2022-09-26T14:26:14.515Z,52.71
2022-09-26T14:28:48.103Z,52.82
2022-09-26T14:31:34.055Z,52.83
2022-09-26T14:34:18.536Z,52.81
2022-09-26T14:36:46.871Z,52.59
2022-09-26T14:39:42.945Z,52.61
2022-09-26T14:42:23.087Z,52.62
2022-09-26T14:45:08.244Z,52.70
2022-09-26T14:47:40.529Z,53.01
2022-09-26T14:50:14.380Z,52.73
2022-09-26T14:52:52.952Z,52.74
2022-09-26T14:55:20.306Z,52.99
2022-09-26T14:57:48.625Z,52.76
2022-09-26T15:00:54.083Z,52.84
2022-09-26T15:03:21.742Z,52.80
2022-09-26T15:05:49.515Z,52.99
2022-09-26T15:08:22.621Z,52.96
2022-09-26T15:10:49.739Z,52.97
2022-09-26T15:13:34.639Z,53.05
2022-09-26T15:16:10.106Z,53.13
2022-09-26T15:18:41.779Z,53.22
2022-09-26T15:21:20.499Z,53.27
2022-09-26T15:23:49.630Z,52.86
2022-09-26T15:26:18.457Z,52.96
2022-09-26T15:28:47.386Z,53.02
2022-09-26T15:31:23.194Z,53.16
2022-09-26T15:33:51.194Z,53.05
2022-09-26T15:36:18.134Z,52.94
2022-09-26T15:38:47.406Z,53.28
2022-09-26T15:41:37.839Z,53.16
2022-09-26T15:44:07.761Z,53.52
2022-09-26T15:46:34.479Z,53.23
2022-09-26T15:49:01.311Z,53.00
2022-09-26T15:51:36.251Z,53.43
2022-09-26T15:54:05.745Z,53.24
2022-09-26T15:56:36.150Z,52.87
2022-09-26T15:59:02.843Z,53.35
2022-09-26T16:01:31.168Z,53.38
2022-09-26T16:04:03.047Z,53.35
2022-09-26T16:06:41.966Z,53.10
2022-09-26T16:09:11.711Z,53.20
2022-09-26T16:11:58.393Z,52.84
2022-09-26T16:14:26.982Z,52.93
2022-09-26T16:17:13.718Z,52.98
2022-09-26T16:19:45.016Z,53.15
2022-09-26T16:22:41.065Z,53.25
2022-09-26T16:25:19.375Z,53.24
2022-09-26T16:27:59.745Z,53.05
2022-09-26T16:30:30.153Z,53.17
2022-09-26T16:33:14.067Z,53.20
2022-09-26T16:35:45.552Z,52.96
2022-09-26T16:38:14.942Z,53.06
2022-09-26T16:40:49.345Z,52.96
2022-09-26T16:43:19.291Z,52.76
2022-09-26T16:45:48.716Z,53.17
2022-09-26T16:48:33.803Z,52.87
2022-09-26T16:51:17.339Z,52.83
2022-09-26T16:53:45.915Z,52.71
2022-09-26T16:56:29.603Z,52.59
2022-09-26T16:59:01.274Z,53.02
2022-09-26T17:01:46.893Z,52.78
2022-09-26T17:04:22.494Z,52.59
2022-09-26T17:06:49.110Z,52.89
2022-09-26T17:09:15.735Z,52.58
2022-09-26T17:11:42.760Z,52.52
2022-09-26T17:14:16.530Z,52.93
2022-09-26T17:16:48.674Z,52.89
2022-09-26T17:19:16.864Z,52.62
2022-09-26T17:21:44.540Z,52.39
2022-09-26T17:24:15.135Z,52.70
2022-09-26T17:26:46.060Z,52.41
2022-09-26T17:29:17.559Z,52.73
2022-09-26T17:31:45.037Z,52.31
2022-09-26T17:34:26.545Z,52.32
2022-09-26T17:36:58.635Z,52.45
2022-09-26T17:39:29.735Z,52.25
2022-09-26T17:42:01.877Z,52.66
2022-09-26T17:44:28.493Z,52.61
2022-09-26T17:46:56.369Z,52.43
2022-09-26T17:49:23.053Z,52.66
2022-09-26T17:51:49.785Z,52.54
2022-09-26T17:54:17.742Z,52.48
2022-09-26T17:56:44.622Z,52.84
2022-09-26T17:59:23.265Z,53.01
2022-09-26T18:01:55.210Z,52.75
2022-09-26T18:04:27.470Z,52.82
2022-09-26T18:06:55.168Z,52.78
2022-09-26T18:09:21.988Z,52.78
2022-09-26T18:12:01.019Z,52.41
2022-09-26T18:14:29.703Z,52.21
2022-09-26T18:16:56.378Z,52.10
2022-09-26T18:19:23.017Z,51.90
2022-09-26T18:21:55.572Z,51.97
2022-09-26T18:24:26.779Z,51.78
2022-09-26T18:26:57.189Z,51.49
2022-09-26T18:29:44.023Z,51.28
2022-09-26T18:32:23.486Z,51.18
2022-09-26T18:35:05.221Z,50.78
2022-09-26T18:37:31.849Z,50.59
2022-09-26T18:40:03.636Z,50.94
2022-09-26T18:42:31.947Z,50.59
2022-09-26T18:45:08.792Z,50.31
2022-09-26T18:47:42.021Z,50.22
2022-09-26T18:50:30.037Z,49.95
2022-09-26T18:52:56.610Z,49.93
2022-09-26T18:55:43.315Z,50.23
2022-09-26T18:58:24.757Z,49.74
2022-09-26T19:00:55.417Z,49.58
2022-09-26T19:03:27.166Z,49.64
2022-09-26T19:05:59.433Z,49.94
2022-09-26T19:08:35.360Z,49.83
2022-09-26T19:11:04.231Z,49.50
2022-09-26T19:13:31.624Z,49.75
2022-09-26T19:15:58.707Z,49.55
2022-09-26T19:18:25.615Z,49.27
2022-09-26T19:20:52.925Z,49.67
2022-09-26T19:23:19.708Z,49.24
2022-09-26T19:25:46.337Z,49.46
2022-09-26T19:28:17.033Z,49.39
2022-09-26T19:30:44.099Z,49.47
2022-09-26T19:33:12.237Z,49.03
2022-09-26T19:35:40.090Z,48.91
2022-09-26T19:38:16.326Z,49.31
2022-09-26T19:40:48.430Z,48.84
2022-09-26T19:43:16.514Z,48.87
2022-09-26T19:45:43.605Z,48.73
2022-09-26T19:48:12.808Z,48.88
2022-09-26T19:50:40.006Z,49.31
2022-09-26T19:53:12.721Z,49.32
2022-09-26T19:55:39.876Z,49.42
2022-09-26T19:58:14.528Z,49.46
2022-09-26T20:00:44.928Z,49.26
2022-09-26T20:03:16.066Z,49.66
2022-09-26T20:05:42.631Z,49.75
2022-09-26T20:08:14.533Z,49.78
2022-09-26T20:10:41.190Z,50.23
2022-09-26T20:13:07.752Z,50.40
2022-09-26T20:15:34.444Z,49.97
2022-09-26T20:18:01.114Z,49.72
2022-09-26T20:20:27.914Z,49.48
2022-09-26T20:22:55.432Z,49.73
2022-09-26T20:25:26.811Z,49.93
2022-09-26T20:27:54.268Z,49.67
2022-09-26T20:30:56.568Z,49.46
2022-09-26T20:33:24.134Z,50.01
2022-09-26T20:36:01.687Z,49.99
2022-09-26T20:38:30.748Z,49.77
2022-09-26T20:41:12.714Z,49.82
2022-09-26T20:43:40.263Z,49.74
2022-09-26T20:46:08.941Z,49.80
2022-09-26T20:48:36.594Z,50.05
2022-09-26T20:51:04.674Z,50.09
2022-09-26T20:53:33.372Z,50.29
2022-09-26T20:56:04.064Z,50.36
2022-09-26T20:58:30.737Z,50.58
2022-09-26T21:00:59.561Z,50.59
2022-09-26T21:03:28.272Z,50.23
2022-09-26T21:05:54.920Z,50.46
2022-09-26T21:08:26.546Z,49.97
2022-09-26T21:10:53.268Z,50.21
2022-09-26T21:13:19.899Z,50.15
2022-09-26T21:15:46.509Z,49.68
2022-09-26T21:18:27.247Z,50.15
2022-09-26T21:20:54.269Z,50.11
2022-09-26T21:23:21.043Z,49.64
2022-09-26T21:25:47.773Z,50.04
2022-09-26T21:28:26.502Z,50.18
2022-09-26T21:30:54.988Z,50.13
2022-09-26T21:33:26.708Z,50.59
2022-09-26T21:35:53.733Z,50.61
2022-09-26T21:38:20.699Z,48.59
2022-09-26T21:40:48.984Z,48.99
2022-09-26T21:43:17.587Z,49.16
2022-09-26T21:45:45.371Z,49.61
2022-09-26T21:48:13.063Z,50.08
2022-09-26T21:50:42.104Z,50.09
2022-09-26T21:53:14.518Z,50.28
2022-09-26T21:55:43.371Z,49.89
2022-09-26T21:58:13.291Z,50.37
2022-09-26T22:00:40.417Z,50.49
2022-09-26T22:03:08.345Z,50.20
2022-09-26T22:05:36.109Z,50.19
2022-09-26T22:08:02.786Z,50.49
2022-09-26T22:10:29.588Z,50.71
2022-09-26T22:12:56.541Z,50.71
2022-09-26T22:15:23.277Z,50.57
2022-09-26T22:17:49.978Z,51.12
2022-09-26T22:20:16.727Z,51.16
2022-09-26T22:22:44.498Z,51.11
2022-09-26T22:25:12.736Z,51.53
2022-09-26T22:27:40.779Z,51.65
2022-09-26T22:30:08.285Z,51.66
2022-09-26T22:32:35.043Z,51.33
2022-09-26T22:35:02.304Z,51.52
2022-09-26T22:37:28.922Z,51.30
2022-09-26T22:39:55.583Z,51.63
2022-09-26T22:42:22.278Z,51.48
2022-09-26T22:44:58.621Z,51.46
2022-09-26T22:47:25.231Z,51.54
2022-09-26T22:49:52.204Z,52.19
2022-09-26T22:52:18.778Z,51.58
2022-09-26T22:54:45.559Z,51.94
2022-09-26T22:57:12.154Z,51.48
2022-09-26T22:59:40.192Z,52.02
2022-09-26T23:02:07.132Z,51.90
2022-09-26T23:04:58.102Z,51.88
2022-09-26T23:07:25.066Z,51.77
2022-09-26T23:09:51.913Z,51.80
2022-09-26T23:12:19.426Z,51.71
2022-09-26T23:14:46.028Z,51.70
2022-09-26T23:17:13.241Z,51.88
2022-09-26T23:19:40.604Z,51.61
2022-09-26T23:22:07.635Z,51.45
2022-09-26T23:24:34.609Z,52.00
2022-09-26T23:27:01.782Z,51.78
2022-09-26T23:29:28.333Z,51.79
2022-09-26T23:31:55.270Z,51.67
2022-09-26T23:34:22.389Z,51.47
2022-09-26T23:36:49.293Z,52.09
2022-09-26T23:39:16.230Z,52.32
2022-09-26T23:41:43.207Z,51.91
2022-09-26T23:44:10.830Z,51.71
2022-09-26T23:46:37.847Z,51.80
2022-09-26T23:49:04.874Z,51.90
2022-09-26T23:51:31.908Z,52.19
2022-09-26T23:53:58.868Z,51.98
2022-09-26T23:56:25.821Z,52.06
2022-09-26T23:58:55.911Z,52.12
